Latest Coastal Weather Observations for Rosslyn Bay Harbour

IDQ60701

Issued at 3:51 pm EST Tuesday 1 September 2015 (issued every 10 minutes, with the page automatically refreshed every 10 minutes)

About coastal observations | Map of coastal stations | Coastal observations for QLD | Marine services | Other Formats
Station Details ID: 033208 Name: ROSSLYN BAY NTC AWS Lat: -23.16 Lon: 150.79 Height: 0.0 m
Data from the previous 72 hours. | See also: Recent months for locations in Queensland
Date/Time
EST
Temp

°C
Wind Pressure Rain
since 9am
mm
Weather Cloud Vis
km
Sea
Height
m
Swell
Dir
 
Speed
knots
Gust
knots
hPa Trend Height
m
Period
s
Dir
01/03:30pm 21.1 ENE 5 10 1014.9 - - - - - - - - -
01/03:00pm 21.4 ENE 4 10 1014.9 - - - - - - - - -
01/02:30pm 21.3 ENE 5 9 1015.3 - - - - - - - - -
01/02:00pm 21.0 ENE 5 10 1015.7 - - - - - - - - -
01/01:30pm 21.3 ENE 3 9 1016.2 - - - - - - - - -
01/01:00pm 20.9 WSW 3 7 1016.6 - - - - - - - - -
01/12:30pm 21.1 SSW 2 6 1017.2 - - - - - - - - -
01/12:00pm 20.3 S 6 10 1017.9 - - - - - - - - -
01/11:30am 19.9 S 8 10 1018.4 - - - - - - - - -
01/11:00am 19.8 S 6 9 1018.9 - - - - - - - - -
01/10:30am 19.8 S 6 10 1019.4 - - - - - - - - -
01/10:00am 19.7 S 5 8 1019.6 - - - - - - - - -
01/09:30am 19.7 S 4 7 1019.5 - - - - - - - - -
01/09:00am 19.5 S 3 5 1019.5 - - - - - - - - -
01/08:30am 18.8 SSW 4 6 1019.4 - - - - - - - - -
01/08:00am 17.5 S 3 5 1019.2 - - - - - - - - -
01/07:30am 16.9 S 4 7 1018.7 - - - - - - - - -
01/07:00am 16.9 S 3 4 1018.4 - - - - - - - - -
01/06:30am 16.6 S 2 4 1018.0 - - - - - - - - -
01/06:00am 16.4 S 3 4 1017.5 - - - - - - - - -
01/05:30am 16.5 SSW 1 3 1017.2 - - - - - - - - -
01/05:00am 16.4 S 2 4 1016.7 - - - - - - - - -
01/04:30am 16.3 S 2 3 1016.4 - - - - - - - - -
01/04:00am 16.4 S 3 4 1016.2 - - - - - - - - -
01/03:30am 16.4 S 3 5 1016.2 - - - - - - - - -
01/03:00am 16.8 S 3 4 1016.3 - - - - - - - - -
01/02:30am 16.7 S 3 5 1016.4 - - - - - - - - -
01/02:00am 16.7 SSW 2 3 1016.5 - - - - - - - - -
01/01:30am 16.9 SW 2 3 1016.7 - - - - - - - - -
01/01:00am 16.7 S 3 6 1016.7 - - - - - - - - -
01/12:30am 17.3 SSW 2 4 1016.7 - - - - - - - - -
01/12:00am 16.8 SSW 1 2 1016.8 - - - - - - - - -
 
Date/Time
EST
Temp

°C
Wind Pressure Rain
since 9am
mm
Weather Cloud Vis
km
Sea
Height
m
Swell
Dir
 
Speed
knots
Gust
knots
hPa Trend Height
m
Period
s
Dir
31/11:30pm 17.4 S 3 4 1016.6 - - - - - - - - -
31/11:00pm 17.9 S 2 3 1016.6 - - - - - - - - -
31/10:30pm 18.9 WSW 1 2 1016.7 - - - - - - - - -
31/10:00pm 19.3 NNW 3 4 1016.7 - - - - - - - - -
31/09:30pm 19.6 N 4 6 1016.7 - - - - - - - - -
31/09:00pm 19.8 N 4 6 1016.6 - - - - - - - - -
31/08:30pm 20.2 N 5 7 1016.4 - - - - - - - - -
31/08:00pm 20.2 N 4 5 1016.2 - - - - - - - - -
31/07:30pm 19.6 N 2 3 1016.0 - - - - - - - - -
31/07:00pm 20.0 NNW 3 5 1015.6 - - - - - - - - -
31/06:30pm 20.3 N 5 6 1015.2 - - - - - - - - -
31/06:00pm 20.5 NNE 7 11 1014.8 - - - - - - - - -
31/05:30pm 20.6 NNE 5 8 1014.6 - - - - - - - - -
31/05:00pm 20.3 NNE 6 10 1014.2 - - - - - - - - -
31/04:30pm 20.5 NNE 7 11 1014.0 - - - - - - - - -
31/04:00pm 21.0 NNE 6 10 1013.8 - - - - - - - - -
31/03:30pm 20.4 NE 6 9 1013.6 - - - - - - - - -
31/03:00pm 20.2 NE 7 10 1013.8 - - - - - - - - -
31/02:30pm 20.3 ENE 6 8 1014.2 - - - - - - - - -
31/02:00pm 20.3 ENE 5 9 1014.7 - - - - - - - - -
31/01:30pm 20.6 ESE 3 8 1015.1 - - - - - - - - -
31/01:00pm 20.7 SE 2 9 1015.7 - - - - - - - - -
31/12:30pm 20.2 WSW 2 5 1016.1 - - - - - - - - -
31/12:00pm 19.4 SW 3 11 1016.6 - - - - - - - - -
31/11:30am 19.7 S 3 7 1016.9 - - - - - - - - -
31/11:00am 19.4 S 6 10 1017.6 - - - - - - - - -
31/10:30am 18.5 S 7 11 1018.1 - - - - - - - - -
31/10:00am 18.5 S 6 10 1018.6 - - - - - - - - -
31/09:30am 18.7 S 4 8 1018.7 - - - - - - - - -
31/09:00am 18.0 S 4 7 1018.8 - - - - - - - - -
31/08:30am 17.7 S 4 6 1018.6 - - - - - - - - -
31/08:00am 16.9 SSW 4 6 1018.3 - - - - - - - - -
31/07:30am 15.5 SSW 4 6 1017.8 - - - - - - - - -
31/07:00am 14.4 SSW 4 6 1017.3 - - - - - - - - -
31/06:30am 13.8 SSW 3 6 1017.0 - - - - - - - - -
31/06:00am 14.0 SSW 3 5 1016.8 - - - - - - - - -
31/05:30am 14.0 SSW 4 6 1016.4 - - - - - - - - -
31/05:00am 15.2 SSW 2 4 1016.2 - - - - - - - - -
31/04:30am 15.9 SSW 1 3 1016.0 - - - - - - - - -
31/04:00am 15.7 S 3 5 1016.0 - - - - - - - - -
31/03:30am 16.0 SSW 4 7 1015.9 - - - - - - - - -
31/03:00am 16.3 SSW 5 8 1016.1 - - - - - - - - -
31/02:30am 16.7 SSW 6 9 1016.3 - - - - - - - - -
31/02:00am 16.5 SSW 6 9 1016.5 - - - - - - - - -
31/01:30am 16.5 SSW 6 8 1016.5 - - - - - - - - -
31/01:00am 16.9 SSW 5 7 1016.6 - - - - - - - - -
31/12:30am 17.3 SSW 4 7 1016.7 - - - - - - - - -
31/12:00am 17.6 SSW 4 6 1016.7 - - - - - - - - -
 
Date/Time
EST
Temp

°C
Wind Pressure Rain
since 9am
mm
Weather Cloud Vis
km
Sea
Height
m
Swell
Dir
 
Speed
knots
Gust
knots
hPa Trend Height
m
Period
s
Dir
30/11:30pm 18.0 SSW 4 6 1016.8 - - - - - - - - -
30/11:00pm 18.4 SSW 5 7 1016.7 - - - - - - - - -
30/10:30pm 18.8 S 5 6 1016.8 - - - - - - - - -
30/10:00pm 19.6 S 5 6 1016.7 - - - - - - - - -
30/09:30pm 19.6 SSW 5 7 1016.6 - - - - - - - - -
30/09:00pm 19.1 SSW 6 8 1016.4 - - - - - - - - -
30/08:30pm 19.7 SSW 4 7 1016.2 - - - - - - - - -
30/08:00pm 20.7 SSW 4 5 1015.9 - - - - - - - - -
30/07:30pm 20.4 SSW 4 5 1015.5 - - - - - - - - -
30/07:00pm 20.4 S 2 4 1015.3 - - - - - - - - -
30/06:30pm 21.1 S 2 4 1015.1 - - - - - - - - -
30/06:00pm 21.1 S 2 2 1014.9 - - - - - - - - -
30/05:30pm 21.7 S 1 4 1014.7 - - - - - - - - -
30/05:00pm 21.9 S 1 3 1014.3 - - - - - - - - -
30/04:30pm 21.3 S 2 4 1014.1 - - - - - - - - -
30/04:00pm 21.8 SSW 2 5 1014.2 - - - - - - - - -
30/03:30pm 21.1 S 3 7 1014.5 - - - - - - - - -
30/03:00pm 21.0 ENE 4 5 1014.6 - - - - - - - - -
30/02:30pm 21.5 ENE 2 7 1014.9 - - - - - - - - -
30/02:00pm 20.9 ENE 5 7 1015.1 - - - - - - - - -
30/01:30pm 21.5 NNW 3 6 1015.6 - - - - - - - - -
30/01:00pm 20.5 NE 2 4 1016.1 - - - - - - - - -
30/12:30pm 20.2 SSW 1 3 1016.5 - - - - - - - - -
30/12:00pm 19.6 SSW 3 5 1017.1 - - - - - - - - -
30/11:30am 19.9 S 5 8 1017.4 - - - - - - - - -
30/11:00am 19.8 S 3 5 1017.8 - - - - - - - - -
30/10:30am 19.9 SSW 3 5 1018.0 - - - - - - - - -
30/10:00am 19.6 SSW 4 7 1018.0 - - - - - - - - -
30/09:30am 19.5 S 3 6 1018.1 - - - - - - - - -
30/09:00am 19.4 S 2 3 1018.0 - - - - - - - - -
30/08:30am 18.7 SSW 1 3 1017.8 - - - - - - - - -
30/08:00am 18.0 SSW 4 6 1018.0 - - - - - - - - -
30/07:30am 17.5 S 4 7 1017.5 - - - - - - - - -
30/07:00am 17.4 S 7 11 1017.4 - - - - - - - - -
30/06:30am 18.1 SSW 5 9 1017.6 - - - - - - - - -
30/06:00am 18.2 SSW 5 8 1016.8 - - - - - - - - -
30/05:30am 18.1 SSW 7 10 1016.6 - - - - - - - - -
30/05:00am 18.4 SSW 6 8 1016.6 - - - - - - - - -
30/04:30am 18.3 SSW 6 9 1016.4 - - - - - - - - -
30/04:00am 18.4 SSW 6 11 1016.1 - - - - - - - - -
30/03:30am 18.5 SSW 6 9 1016.3 - - - - - - - - -
30/03:00am 18.4 SSW 6 10 1016.3 - - - - - - - - -
30/02:30am 18.6 SSW 2 7 1016.6 - - - - - - - - -
30/02:00am 18.6 WSW 4 6 1017.0 - - - - - - - - -
30/01:30am 18.6 W 4 7 1017.6 - - - - - - - - -
30/01:00am 19.6 SW 4 6 1017.8 - - - - - - - - -
30/12:30am 20.1 S 4 6 1017.9 - - - - - - - - -
30/12:00am 20.5 WSW 3 4 1018.3 - - - - - - - - -
 
Date/Time
EST
Temp

°C
Wind Pressure Rain
since 9am
mm
Weather Cloud Vis
km
Sea
Height
m
Swell
Dir
 
Speed
knots
Gust
knots
hPa Trend Height
m
Period
s
Dir
29/11:30pm 20.6 WSW 2 4 1018.2 - - - - - - - - -
29/11:00pm 20.7 SSW 3 5 1018.1 - - - - - - - - -
29/10:30pm 21.7 WNW 2 4 1018.2 - - - - - - - - -
29/10:00pm 22.0 NW 5 8 1018.3 - - - - - - - - -
29/09:30pm 22.1 N 5 6 1018.5 - - - - - - - - -
29/09:00pm 22.0 NE 6 9 1018.2 - - - - - - - - -
29/08:30pm 22.0 NE 9 11 1017.8 - - - - - - - - -
29/08:00pm 22.1 NE 11 13 1017.4 - - - - - - - - -
29/07:30pm 22.1 NE 9 12 1017.4 - - - - - - - - -
29/07:00pm 22.1 NE 9 11 1017.4 - - - - - - - - -
29/06:30pm 22.1 ENE 11 14 1017.1 - - - - - - - - -
29/06:00pm 22.1 ENE 6 12 1016.8 - - - - - - - - -
29/05:30pm 22.1 ENE 7 12 1016.9 - - - - - - - - -
29/05:00pm 22.3 E 5 11 1016.6 - - - - - - - - -
29/04:30pm 22.4 S 2 8 1016.7 - - - - - - - - -
29/04:00pm 22.5 SSW 3 9 1016.7 - - - - - - - - -

Other Formats:

Comma delimited format used in spreadsheet applications
http://www.bom.gov.au/fwo/IDQ60701/IDQ60701.95298.axf

JavaScript Object Notation format (JSON) in row-major order
http://www.bom.gov.au/fwo/IDQ60701/IDQ60701.95298.json